Terminal Aerodrome Forecast
Issued by NWS

Home | Current Version | Previous Version | Text Only | Print | Product List | Glossary Off
Versions: 1 2 3 4 5 6 7 8 9 10 11 12 13 14 15 16 17 18 19 20 21 22 23 24

000
FTUS43 KLOT 280358 AAA
TAFDPA
TAF AMD
KDPA 280358Z 2804/2824 28007KT P6SM OVC070
     FM280500 34005KT P6SM OVC040
     FM280700 35007KT 6SM -RA OVC015
      TEMPO 2811/2814 -SHRA OVC008
     FM281500 35010KT P6SM OVC010
     FM282100 03015G22KT P6SM VCSH BKN025=

USA.gov is the U.S. government's official web portal to all federal, state and local government web resources and services.